Time;durP1;ratioP1;P1;durP2;ratioP2;P2;SDS_P1;SDS_P2;PMS_P1;PMS_P2;Temp;Humidity;BMP_temperature;BMP_pressure;BME280_temperature;BME280_humidity;BME280_pressure;Samples;Min_cycle;Max_cycle;Signal;HPM_P1;HPM_P2
2023/09/23 00:01:44;;;;;;;12.35;11.45;;;;;;;;;;4966849;28;20618;-73
2023/09/23 00:04:10;;;;;;;12.77;11.70;;;;;;;;;;4967505;28;20038;-73
2023/09/23 00:06:35;;;;;;;11.60;10.90;;;;;;;;;;4967300;28;20031;-73
2023/09/23 00:09:02;;;;;;;12.60;11.70;;;;;;;;;;4967435;28;20050;-73
2023/09/23 00:11:28;;;;;;;11.90;11.10;;;;;;;;;;4967837;28;20043;-72
2023/09/23 00:13:54;;;;;;;12.05;11.38;;;;;;;;;;4968232;28;20425;-74
2023/09/23 00:16:21;;;;;;;11.77;11.10;;;;;;;;;;4970520;28;20046;-73
2023/09/23 00:18:47;;;;;;;11.98;11.07;;;;;;;;;;4967630;28;20050;-74
2023/09/23 00:21:13;;;;;;;12.63;11.63;;;;;;;;;;4971404;28;20041;-72
2023/09/23 00:23:39;;;;;;;12.27;11.38;;;;;;;;;;4984945;28;20444;-74
2023/09/23 00:26:06;;;;;;;12.80;11.55;;;;;;;;;;4967147;28;20038;-74
2023/09/23 00:28:33;;;;;;;11.90;11.20;;;;;;;;;;4968259;28;20037;-74
2023/09/23 00:31:10;;;;;;;11.88;11.20;;;;;;;;;;4998188;28;20035;-73
2023/09/23 00:33:37;;;;;;;11.75;11.10;;;;;;;;;;4963248;28;20045;-73
2023/09/23 00:36:10;;;;;;;11.60;10.90;;;;;;;;;;4961671;28;20500;-73
2023/09/23 00:38:36;;;;;;;12.25;11.35;;;;;;;;;;4994228;28;20069;-73
2023/09/23 00:41:08;;;;;;;11.60;10.90;;;;;;;;;;4969898;28;20107;-74
2023/09/23 00:43:35;;;;;;;12.10;11.23;;;;;;;;;;4986383;28;20057;-73
2023/09/23 00:46:05;;;;;;;11.27;10.68;;;;;;;;;;4974453;28;20038;-73
2023/09/23 00:48:39;;;;;;;12.18;11.10;;;;;;;;;;4974344;28;20059;-73
2023/09/23 00:51:06;;;;;;;11.07;10.38;;;;;;;;;;4997374;28;20049;-73
2023/09/23 00:53:35;;;;;;;11.50;10.80;;;;;;;;;;4979212;28;20485;-73
2023/09/23 00:56:02;;;;;;;11.40;10.52;;;;;;;;;;4968231;28;20396;-73
2023/09/23 00:58:28;;;;;;;11.38;10.77;;;;;;;;;;4992516;28;20042;-73
2023/09/23 01:00:55;;;;;;;11.68;11.02;;;;;;;;;;4960970;28;20043;-73
2023/09/23 01:03:21;;;;;;;11.95;10.95;;;;;;;;;;4977077;28;20042;-73
2023/09/23 01:05:48;;;;;;;12.10;11.30;;;;;;;;;;4963064;28;20546;-73
2023/09/23 01:08:31;;;;;;;11.70;11.00;;;;;;;;;;4992509;28;20039;-73
2023/09/23 01:10:57;;;;;;;11.73;10.77;;;;;;;;;;4962596;28;20058;-74
2023/09/23 01:13:29;;;;;;;11.55;10.85;;;;;;;;;;4962216;28;20030;-73
2023/09/23 01:15:55;;;;;;;11.63;11.02;;;;;;;;;;4962400;28;20050;-73
2023/09/23 01:18:28;;;;;;;11.35;10.73;;;;;;;;;;4961168;28;20109;-73
2023/09/23 01:21:00;;;;;;;11.35;10.65;;;;;;;;;;4993779;28;20194;-73
2023/09/23 01:23:27;;;;;;;12.18;11.02;;;;;;;;;;4963248;28;20428;-73
2023/09/23 01:25:52;;;;;;;10.85;10.25;;;;;;;;;;4962672;28;20563;-74
2023/09/23 01:28:18;;;;;;;11.95;11.15;;;;;;;;;;4961266;28;20125;-73
2023/09/23 01:30:45;;;;;;;11.10;10.30;;;;;;;;;;4962711;28;20046;-73
2023/09/23 01:33:14;;;;;;;10.75;10.10;;;;;;;;;;4978941;28;20046;-73
2023/09/23 01:35:40;;;;;;;11.38;10.68;;;;;;;;;;4995017;28;20041;-73
2023/09/23 01:38:06;;;;;;;11.05;10.25;;;;;;;;;;4979848;28;20068;-73
2023/09/23 01:40:39;;;;;;;11.27;10.68;;;;;;;;;;4966234;28;20039;-73
2023/09/23 01:43:06;;;;;;;11.20;10.60;;;;;;;;;;4979639;28;20058;-73
2023/09/23 01:45:32;;;;;;;10.88;10.25;;;;;;;;;;4979365;28;20931;-73
2023/09/23 01:47:58;;;;;;;11.05;10.25;;;;;;;;;;4965282;28;20170;-73
2023/09/23 01:50:25;;;;;;;10.93;10.30;;;;;;;;;;4994678;28;20122;-73
2023/09/23 01:52:51;;;;;;;11.38;10.68;;;;;;;;;;4979440;28;20050;-73
2023/09/23 01:55:17;;;;;;;11.25;10.60;;;;;;;;;;4965968;28;20035;-72
2023/09/23 01:57:43;;;;;;;10.90;10.30;;;;;;;;;;4994512;28;20448;-73
2023/09/23 02:00:15;;;;;;;11.15;10.40;;;;;;;;;;4979294;28;20479;-72
2023/09/23 02:02:41;;;;;;;10.95;10.32;;;;;;;;;;4947180;28;20081;-72
2023/09/23 02:05:07;;;;;;;10.85;10.10;;;;;;;;;;4965545;28;20041;-73
2023/09/23 02:07:33;;;;;;;11.32;10.30;;;;;;;;;;4964723;28;20436;-73
2023/09/23 02:09:59;;;;;;;10.45;9.85;;;;;;;;;;4979829;28;20117;-73
2023/09/23 02:12:24;;;;;;;11.10;10.40;;;;;;;;;;4963926;28;20027;-73
2023/09/23 02:14:51;;;;;;;11.35;10.68;;;;;;;;;;4962635;28;20485;-73
2023/09/23 02:17:19;;;;;;;11.30;10.60;;;;;;;;;;4996565;28;20552;-73
2023/09/23 02:19:50;;;;;;;11.38;10.60;;;;;;;;;;4965273;28;20428;-73
2023/09/23 02:22:17;;;;;;;11.45;10.75;;;;;;;;;;4955487;28;20105;-73
2023/09/23 02:24:43;;;;;;;11.10;10.50;;;;;;;;;;4971117;28;20496;-73
2023/09/23 02:27:09;;;;;;;11.30;10.55;;;;;;;;;;4971166;28;20045;-73
2023/09/23 02:29:35;;;;;;;11.05;10.32;;;;;;;;;;4959553;28;20043;-73
2023/09/23 02:32:01;;;;;;;11.85;11.05;;;;;;;;;;4965306;28;20034;-73
2023/09/23 02:34:30;;;;;;;11.65;10.77;;;;;;;;;;4988150;28;20046;-73
2023/09/23 02:36:56;;;;;;;11.85;10.95;;;;;;;;;;4976353;28;20034;-73
2023/09/23 02:39:22;;;;;;;10.77;10.13;;;;;;;;;;4978943;28;20061;-73
2023/09/23 02:41:49;;;;;;;11.25;10.65;;;;;;;;;;5013620;28;20030;-72
2023/09/23 02:44:19;;;;;;;10.93;10.23;;;;;;;;;;4981489;28;20493;-72
2023/09/23 02:46:54;;;;;;;11.20;10.50;;;;;;;;;;4961708;28;20035;-72
2023/09/23 02:49:20;;;;;;;11.57;10.65;;;;;;;;;;4973348;28;20478;-72
2023/09/23 02:51:46;;;;;;;10.95;10.25;;;;;;;;;;4995730;28;20077;-72
2023/09/23 02:54:18;;;;;;;10.63;10.02;;;;;;;;;;4958509;28;20111;-72
2023/09/23 02:56:48;;;;;;;11.23;10.43;;;;;;;;;;4962471;28;20043;-72
2023/09/23 02:59:15;;;;;;;10.95;10.32;;;;;;;;;;4957135;28;20042;-72
2023/09/23 03:01:45;;;;;;;11.43;10.70;;;;;;;;;;4956326;28;20042;-72
2023/09/23 03:04:21;;;;;;;11.45;10.65;;;;;;;;;;4972229;28;20951;-72
2023/09/23 03:06:54;;;;;;;11.25;10.52;;;;;;;;;;4961063;28;20042;-72
2023/09/23 03:09:23;;;;;;;11.18;10.40;;;;;;;;;;4956895;28;20039;-72
2023/09/23 03:11:55;;;;;;;11.50;10.75;;;;;;;;;;4973185;28;20074;-72
2023/09/23 03:14:30;;;;;;;11.20;10.50;;;;;;;;;;4954625;28;20062;-72
2023/09/23 03:16:57;;;;;;;10.95;10.25;;;;;;;;;;4963567;28;20385;-73
2023/09/23 03:19:25;;;;;;;11.90;11.10;;;;;;;;;;4964128;28;20416;-73
2023/09/23 03:21:54;;;;;;;11.10;10.40;;;;;;;;;;4956776;28;20049;-73
2023/09/23 03:24:20;;;;;;;11.32;10.60;;;;;;;;;;4970507;28;20114;-73
2023/09/23 03:26:46;;;;;;;11.73;11.02;;;;;;;;;;4975304;28;20130;-73
2023/09/23 03:29:15;;;;;;;12.82;11.57;;;;;;;;;;4972987;28;20409;-73
2023/09/23 03:31:41;;;;;;;12.73;11.82;;;;;;;;;;4959911;28;20117;-73
2023/09/23 03:34:07;;;;;;;12.15;11.30;;;;;;;;;;4958519;28;20046;-73
2023/09/23 03:36:33;;;;;;;12.07;11.27;;;;;;;;;;4973628;28;20046;-73
2023/09/23 03:39:00;;;;;;;11.65;10.85;;;;;;;;;;4960114;28;20041;-73
2023/09/23 03:41:28;;;;;;;11.85;11.05;;;;;;;;;;4963785;28;20137;-73
2023/09/23 03:43:53;;;;;;;11.77;10.75;;;;;;;;;;4968164;28;20043;-73
2023/09/23 03:46:19;;;;;;;11.98;11.13;;;;;;;;;;4976584;28;20149;-73
2023/09/23 03:48:45;;;;;;;10.98;10.15;;;;;;;;;;4992477;28;20049;-73
2023/09/23 03:51:12;;;;;;;10.95;10.30;;;;;;;;;;4961706;28;20046;-72
2023/09/23 03:53:37;;;;;;;10.80;10.20;;;;;;;;;;4963281;28;20116;-72
2023/09/23 03:56:03;;;;;;;11.02;10.18;;;;;;;;;;4954416;28;20077;-72
2023/09/23 03:58:30;;;;;;;10.63;9.93;;;;;;;;;;4994342;28;20440;-72
2023/09/23 04:00:55;;;;;;;11.38;10.27;;;;;;;;;;4963298;28;20568;-73
2023/09/23 04:03:22;;;;;;;11.20;10.40;;;;;;;;;;4945866;28;20165;-73
2023/09/23 04:06:00;;;;;;;11.30;10.60;;;;;;;;;;4995384;28;20048;-72
2023/09/23 04:08:27;;;;;;;11.07;10.27;;;;;;;;;;4993156;28;20053;-73
2023/09/23 04:10:52;;;;;;;10.95;10.15;;;;;;;;;;4962900;28;20440;-72
2023/09/23 04:13:18;;;;;;;11.48;10.57;;;;;;;;;;4962611;28;20042;-72
2023/09/23 04:15:44;;;;;;;11.52;10.57;;;;;;;;;;4961315;28;20124;-73
2023/09/23 04:18:11;;;;;;;10.48;9.77;;;;;;;;;;4964415;28;20057;-72
2023/09/23 04:20:36;;;;;;;10.75;9.95;;;;;;;;;;4963036;28;20027;-72
2023/09/23 04:23:02;;;;;;;11.00;10.30;;;;;;;;;;4955451;28;20527;-72
2023/09/23 04:25:29;;;;;;;10.88;10.18;;;;;;;;;;4961857;28;20043;-72
2023/09/23 04:27:55;;;;;;;10.20;9.60;;;;;;;;;;4963423;28;20046;-72
2023/09/23 04:30:21;;;;;;;10.40;9.80;;;;;;;;;;4962627;28;20039;-73
2023/09/23 04:32:46;;;;;;;10.27;9.68;;;;;;;;;;4959847;28;20092;-73
2023/09/23 04:35:16;;;;;;;10.43;9.73;;;;;;;;;;4962195;28;20030;-72
2023/09/23 04:37:41;;;;;;;10.70;9.95;;;;;;;;;;4957400;28;20046;-72
2023/09/23 04:40:10;;;;;;;10.90;10.20;;;;;;;;;;4961362;28;20034;-73
2023/09/23 04:42:36;;;;;;;10.48;9.77;;;;;;;;;;4964362;28;20038;-73
2023/09/23 04:45:03;;;;;;;10.77;9.98;;;;;;;;;;4964725;28;20523;-72
2023/09/23 04:47:30;;;;;;;10.02;9.43;;;;;;;;;;4963345;28;20035;-72
2023/09/23 04:49:57;;;;;;;10.70;10.00;;;;;;;;;;4962462;28;20046;-72
2023/09/23 04:52:23;;;;;;;10.80;9.90;;;;;;;;;;4963974;28;20035;-73
2023/09/23 04:54:53;;;;;;;10.65;10.05;;;;;;;;;;4963774;28;20651;-73
2023/09/23 04:57:19;;;;;;;10.45;9.85;;;;;;;;;;4964512;28;20050;-73
2023/09/23 04:59:45;;;;;;;11.02;10.23;;;;;;;;;;4963431;28;20073;-73
2023/09/23 05:02:14;;;;;;;10.55;9.88;;;;;;;;;;4964263;28;20109;-73
2023/09/23 05:04:40;;;;;;;10.52;9.93;;;;;;;;;;4966216;28;20045;-73
2023/09/23 05:07:05;;;;;;;10.45;9.85;;;;;;;;;;4966847;28;20047;-73
2023/09/23 05:09:31;;;;;;;10.40;9.55;;;;;;;;;;4971309;28;20118;-73
2023/09/23 05:11:57;;;;;;;10.52;9.80;;;;;;;;;;4967180;28;20035;-73
2023/09/23 05:14:25;;;;;;;11.30;10.50;;;;;;;;;;4966670;28;20644;-73
2023/09/23 05:16:51;;;;;;;10.82;10.13;;;;;;;;;;4966377;28;20067;-72
2023/09/23 05:19:19;;;;;;;10.90;10.00;;;;;;;;;;4965699;28;20026;-72
2023/09/23 05:21:46;;;;;;;11.73;11.02;;;;;;;;;;4967986;28;20124;-73
2023/09/23 05:24:12;;;;;;;10.90;10.20;;;;;;;;;;4965825;28;20034;-74
2023/09/23 05:26:40;;;;;;;10.20;9.60;;;;;;;;;;4966274;28;20042;-74
2023/09/23 05:29:06;;;;;;;11.25;10.43;;;;;;;;;;4967809;28;20563;-73
2023/09/23 05:31:31;;;;;;;10.85;10.05;;;;;;;;;;4967018;28;20038;-73
2023/09/23 05:33:57;;;;;;;10.80;10.05;;;;;;;;;;4965441;28;20923;-73
2023/09/23 05:36:23;;;;;;;10.77;10.07;;;;;;;;;;4967430;28;20039;-72
2023/09/23 05:38:48;;;;;;;11.50;10.45;;;;;;;;;;4997322;28;20126;-73
2023/09/23 05:41:14;;;;;;;11.10;10.30;;;;;;;;;;4967308;28;20042;-73
2023/09/23 05:43:39;;;;;;;10.60;10.00;;;;;;;;;;4965665;28;20035;-73
2023/09/23 05:46:05;;;;;;;10.80;9.95;;;;;;;;;;4966144;28;20098;-73
2023/09/23 05:48:32;;;;;;;10.40;9.80;;;;;;;;;;4967550;28;20085;-74
2023/09/23 05:51:05;;;;;;;11.20;10.50;;;;;;;;;;4966704;28;20126;-72
2023/09/23 05:53:33;;;;;;;10.65;9.95;;;;;;;;;;4965489;28;20038;-73
2023/09/23 05:56:01;;;;;;;10.63;9.73;;;;;;;;;;4981012;28;20691;-73
2023/09/23 05:58:27;;;;;;;10.18;9.48;;;;;;;;;;4966797;28;20039;-73
2023/09/23 06:00:53;;;;;;;10.68;10.07;;;;;;;;;;4970499;28;20435;-74
2023/09/23 06:03:19;;;;;;;11.50;10.50;;;;;;;;;;4961442;28;20034;-73
2023/09/23 06:05:44;;;;;;;10.70;10.00;;;;;;;;;;4969034;28;20039;-73
2023/09/23 06:08:12;;;;;;;10.45;9.82;;;;;;;;;;4967439;28;20030;-73
2023/09/23 06:10:39;;;;;;;10.45;9.75;;;;;;;;;;4966112;28;20023;-72
2023/09/23 06:13:10;;;;;;;10.57;9.98;;;;;;;;;;4964734;28;20034;-73
2023/09/23 06:15:36;;;;;;;11.52;10.40;;;;;;;;;;4964340;28;20083;-73
2023/09/23 06:18:01;;;;;;;10.50;9.90;;;;;;;;;;4965848;28;20136;-72
2023/09/23 06:20:27;;;;;;;10.18;9.52;;;;;;;;;;4965172;28;20035;-73
2023/09/23 06:22:53;;;;;;;10.75;10.07;;;;;;;;;;4963124;28;20677;-73
2023/09/23 06:25:19;;;;;;;11.07;9.93;;;;;;;;;;4977727;28;20142;-73
2023/09/23 06:27:48;;;;;;;11.00;10.20;;;;;;;;;;4967364;28;20149;-73
2023/09/23 06:30:15;;;;;;;10.07;9.45;;;;;;;;;;4970435;28;20046;-73
2023/09/23 06:32:42;;;;;;;10.07;9.30;;;;;;;;;;4970658;28;20034;-73
2023/09/23 06:35:10;;;;;;;10.45;9.60;;;;;;;;;;4981388;28;20038;-71
2023/09/23 06:37:35;;;;;;;11.00;10.30;;;;;;;;;;4981972;28;20035;-71
2023/09/23 06:40:01;;;;;;;10.32;9.65;;;;;;;;;;4970620;28;20584;-75
2023/09/23 06:42:27;;;;;;;10.38;9.48;;;;;;;;;;4971843;28;20034;-74
2023/09/23 06:44:53;;;;;;;10.80;10.10;;;;;;;;;;4987089;28;20054;-74
2023/09/23 06:47:20;;;;;;;10.88;10.18;;;;;;;;;;4970241;28;20042;-73
2023/09/23 06:49:45;;;;;;;11.02;10.35;;;;;;;;;;4971301;28;20047;-74
2023/09/23 06:52:12;;;;;;;10.82;9.90;;;;;;;;;;4970715;28;20033;-74
2023/09/23 06:54:39;;;;;;;10.70;9.95;;;;;;;;;;4964645;28;20072;-72
2023/09/23 06:57:05;;;;;;;10.85;10.10;;;;;;;;;;4972209;28;20429;-71
2023/09/23 06:59:33;;;;;;;10.57;9.98;;;;;;;;;;4973239;28;20107;-72
2023/09/23 07:01:58;;;;;;;9.95;9.35;;;;;;;;;;4982829;28;20526;-73
2023/09/23 07:04:24;;;;;;;10.82;10.05;;;;;;;;;;4971617;28;20171;-71
2023/09/23 07:06:50;;;;;;;10.85;10.15;;;;;;;;;;4975264;28;20481;-72
2023/09/23 07:09:15;;;;;;;10.23;9.60;;;;;;;;;;4976278;28;20042;-74
2023/09/23 07:11:41;;;;;;;10.77;10.07;;;;;;;;;;4984127;28;20085;-73
2023/09/23 07:14:07;;;;;;;10.57;9.98;;;;;;;;;;4972976;28;20051;-73
2023/09/23 07:16:36;;;;;;;10.55;9.95;;;;;;;;;;4971298;28;20132;-72
2023/09/23 07:19:05;;;;;;;11.43;10.73;;;;;;;;;;4975436;28;20030;-73
2023/09/23 07:21:30;;;;;;;;;;;;;;;;;;4952271;28;20046;-73
2023/09/23 07:23:57;;;;;;;11.10;10.30;;;;;;;;;;4972656;28;20430;-73
2023/09/23 07:26:24;;;;;;;10.35;9.75;;;;;;;;;;4972596;28;20034;-72
2023/09/23 07:28:50;;;;;;;10.52;9.82;;;;;;;;;;4987332;28;20030;-72
2023/09/23 07:31:17;;;;;;;10.38;9.77;;;;;;;;;;4983385;28;20499;-73
2023/09/23 07:33:43;;;;;;;11.25;10.35;;;;;;;;;;4968551;28;20043;-74
2023/09/23 07:36:13;;;;;;;10.07;9.48;;;;;;;;;;4984153;28;20450;-73
2023/09/23 07:38:40;;;;;;;10.65;10.00;;;;;;;;;;4971796;28;20038;-73
2023/09/23 07:41:37;;;;;;;10.60;9.80;;;;;;;;;;4971841;28;20136;-70
2023/09/23 07:44:06;;;;;;;10.05;9.40;;;;;;;;;;4985454;28;20037;-73
2023/09/23 07:46:33;;;;;;;10.05;9.38;;;;;;;;;;4962723;28;20278;-74
2023/09/23 07:49:42;;;;;;;9.68;9.07;;;;;;;;;;4974544;28;20078;-75
2023/09/23 07:52:08;;;;;;;9.43;8.82;;;;;;;;;;4987141;28;20039;-74
2023/09/23 07:54:34;;;;;;;9.23;8.73;;;;;;;;;;4988710;28;20518;-74
2023/09/23 07:56:59;;;;;;;8.57;8.07;;;;;;;;;;4963930;28;20555;-75
2023/09/23 07:59:26;;;;;;;9.32;8.70;;;;;;;;;;4966385;28;20030;-74
2023/09/23 08:01:51;;;;;;;8.43;7.93;;;;;;;;;;4966373;28;20093;-74
2023/09/23 08:04:17;;;;;;;8.70;8.20;;;;;;;;;;4964954;28;20035;-74
2023/09/23 08:06:43;;;;;;;8.88;8.18;;;;;;;;;;4979816;28;20043;-74
2023/09/23 08:09:09;;;;;;;8.82;8.32;;;;;;;;;;4967573;28;20042;-73
2023/09/23 08:11:38;;;;;;;9.05;8.25;;;;;;;;;;4967304;28;20034;-74
2023/09/23 08:14:04;;;;;;;9.10;8.50;;;;;;;;;;4964809;28;20035;-74
2023/09/23 08:16:30;;;;;;;9.10;8.40;;;;;;;;;;4965240;28;20061;-74
2023/09/23 08:18:55;;;;;;;8.35;7.80;;;;;;;;;;4965642;28;20043;-74
2023/09/23 08:21:21;;;;;;;9.00;8.50;;;;;;;;;;4969310;28;20088;-74
2023/09/23 08:23:46;;;;;;;8.65;8.15;;;;;;;;;;4964646;28;20023;-74
2023/09/23 08:26:12;;;;;;;8.90;8.30;;;;;;;;;;4968060;28;20091;-74
2023/09/23 08:28:37;;;;;;;8.98;8.38;;;;;;;;;;4963731;28;20093;-75
2023/09/23 08:31:03;;;;;;;8.90;8.07;;;;;;;;;;4962171;28;20031;-75
2023/09/23 08:33:29;;;;;;;8.70;8.10;;;;;;;;;;4966830;28;20040;-75
2023/09/23 08:35:54;;;;;;;8.65;8.15;;;;;;;;;;4979850;28;20050;-76
2023/09/23 08:38:23;;;;;;;9.15;8.60;;;;;;;;;;4961366;28;20542;-74
2023/09/23 08:40:50;;;;;;;9.13;8.53;;;;;;;;;;4963464;28;20082;-74
2023/09/23 08:43:18;;;;;;;9.40;8.80;;;;;;;;;;4969719;28;20737;-74
2023/09/23 08:45:44;;;;;;;8.93;8.32;;;;;;;;;;4966775;28;20042;-74
2023/09/23 08:48:11;;;;;;;9.05;8.25;;;;;;;;;;4967761;28;20063;-74
2023/09/23 08:50:42;;;;;;;8.50;8.00;;;;;;;;;;4967237;28;20096;-74
2023/09/23 08:53:08;;;;;;;8.63;8.05;;;;;;;;;;4972854;28;20137;-74
2023/09/23 08:55:34;;;;;;;9.30;8.38;;;;;;;;;;4969236;28;20086;-74
2023/09/23 08:58:03;;;;;;;8.68;8.10;;;;;;;;;;4966091;28;20038;-74
2023/09/23 09:00:29;;;;;;;8.93;8.23;;;;;;;;;;4968061;28;20073;-74
2023/09/23 09:02:55;;;;;;;8.77;8.10;;;;;;;;;;4972081;28;20055;-73
2023/09/23 09:05:21;;;;;;;9.35;8.70;;;;;;;;;;4967826;28;20039;-73
2023/09/23 09:07:46;;;;;;;8.95;8.40;;;;;;;;;;4966796;28;20175;-73
2023/09/23 09:10:13;;;;;;;9.25;8.40;;;;;;;;;;4970063;28;20047;-73
2023/09/23 09:12:39;;;;;;;9.25;8.75;;;;;;;;;;4971119;28;20042;-73
2023/09/23 09:15:05;;;;;;;9.18;8.52;;;;;;;;;;4982321;28;20046;-73
2023/09/23 09:17:33;;;;;;;8.90;8.30;;;;;;;;;;4968396;28;20375;-73
2023/09/23 09:20:09;;;;;;;9.40;8.80;;;;;;;;;;4966054;28;20062;-73
2023/09/23 09:22:36;;;;;;;9.43;8.70;;;;;;;;;;4981554;28;20047;-73
2023/09/23 09:25:03;;;;;;;9.18;8.48;;;;;;;;;;4965903;28;20039;-73
2023/09/23 09:27:29;;;;;;;9.50;8.90;;;;;;;;;;4966936;28;20097;-73
2023/09/23 09:29:54;;;;;;;9.27;8.57;;;;;;;;;;4995171;28;20038;-73
2023/09/23 09:32:29;;;;;;;8.98;8.18;;;;;;;;;;4981340;28;20050;-73
2023/09/23 09:34:59;;;;;;;9.15;8.52;;;;;;;;;;4982103;28;20519;-73
2023/09/23 09:37:26;;;;;;;9.43;8.63;;;;;;;;;;4970355;28;20137;-73
2023/09/23 09:39:57;;;;;;;8.95;8.35;;;;;;;;;;4971330;28;20512;-73
2023/09/23 09:42:33;;;;;;;8.80;8.30;;;;;;;;;;4966572;28;20352;-73
2023/09/23 09:45:00;;;;;;;9.07;8.35;;;;;;;;;;4967361;28;20117;-73
2023/09/23 09:47:28;;;;;;;9.00;8.30;;;;;;;;;;4971493;28;20104;-72
2023/09/23 09:49:54;;;;;;;9.00;8.40;;;;;;;;;;4967050;28;20452;-73
2023/09/23 09:52:22;;;;;;;9.25;8.65;;;;;;;;;;4971543;28;20046;-73
2023/09/23 09:54:52;;;;;;;9.60;8.90;;;;;;;;;;4968373;28;20035;-72
2023/09/23 09:57:22;;;;;;;9.82;8.98;;;;;;;;;;4966979;28;20046;-72
2023/09/23 09:59:52;;;;;;;8.70;8.20;;;;;;;;;;4964788;28;20436;-72
2023/09/23 10:02:18;;;;;;;9.10;8.40;;;;;;;;;;4983401;28;20081;-72
2023/09/23 10:04:51;;;;;;;8.30;7.70;;;;;;;;;;4966664;28;20035;-73
2023/09/23 10:07:17;;;;;;;9.05;8.35;;;;;;;;;;4965935;28;20046;-72
2023/09/23 10:09:55;;;;;;;8.60;7.90;;;;;;;;;;4966358;28;20043;-73
2023/09/23 10:12:31;;;;;;;8.50;7.90;;;;;;;;;;4972004;28;20496;-72
2023/09/23 10:14:58;;;;;;;7.75;7.25;;;;;;;;;;4967752;28;20047;-72
2023/09/23 10:17:31;;;;;;;8.30;7.60;;;;;;;;;;4963880;28;20520;-73
2023/09/23 10:19:58;;;;;;;7.97;7.28;;;;;;;;;;4969354;28;20556;-73
2023/09/23 10:22:27;;;;;;;7.70;7.20;;;;;;;;;;4968547;28;20030;-72
2023/09/23 10:25:04;;;;;;;7.80;7.30;;;;;;;;;;4968451;28;20046;-72
2023/09/23 10:27:32;;;;;;;7.85;7.13;;;;;;;;;;4969284;28;20133;-72
2023/09/23 10:29:59;;;;;;;8.25;7.60;;;;;;;;;;4968690;28;20062;-71
2023/09/23 10:32:26;;;;;;;8.18;7.68;;;;;;;;;;4975611;28;20086;-74
2023/09/23 10:34:58;;;;;;;8.43;7.82;;;;;;;;;;4966916;28;20121;-73
2023/09/23 10:37:32;;;;;;;8.75;8.15;;;;;;;;;;4967341;28;20038;-72
2023/09/23 10:40:12;;;;;;;8.32;7.82;;;;;;;;;;4969405;28;20030;-71
2023/09/23 10:42:40;;;;;;;8.60;8.00;;;;;;;;;;4996028;28;20046;-71
2023/09/23 10:45:08;;;;;;;8.70;8.07;;;;;;;;;;4965774;28;20096;-73
2023/09/23 10:47:35;;;;;;;8.30;7.80;;;;;;;;;;4968654;28;20030;-72
2023/09/23 10:50:04;;;;;;;8.95;8.35;;;;;;;;;;4968661;28;20429;-71
2023/09/23 10:52:30;;;;;;;8.63;7.93;;;;;;;;;;4969932;28;20026;-71
2023/09/23 10:54:57;;;;;;;8.85;8.10;;;;;;;;;;4982979;28;20038;-71
2023/09/23 10:57:23;;;;;;;9.30;8.70;;;;;;;;;;4965520;28;20041;-71
2023/09/23 10:59:50;;;;;;;9.13;8.40;;;;;;;;;;4966523;28;20035;-71
2023/09/23 11:02:18;;;;;;;9.27;8.50;;;;;;;;;;4966618;28;20523;-71
2023/09/23 11:04:48;;;;;;;9.07;8.38;;;;;;;;;;4968697;28;20035;-72
2023/09/23 11:07:15;;;;;;;8.80;8.20;;;;;;;;;;4984941;28;20038;-72
2023/09/23 11:09:47;;;;;;;9.60;8.30;;;;;;;;;;4964833;28;20125;-73
2023/09/23 11:12:15;;;;;;;8.52;7.88;;;;;;;;;;4965230;28;20043;-72
2023/09/23 11:14:48;;;;;;;7.88;7.38;;;;;;;;;;4965268;28;20416;-72
2023/09/23 11:17:43;;;;;;;8.13;7.53;;;;;;;;;;4968058;28;20070;-72
2023/09/23 11:20:12;;;;;;;7.82;7.32;;;;;;;;;;4999077;28;20140;-72
2023/09/23 11:22:38;;;;;;;8.02;7.30;;;;;;;;;;4983627;28;20567;-72
2023/09/23 11:25:09;;;;;;;7.85;7.32;;;;;;;;;;4995754;28;20050;-73
2023/09/23 11:27:35;;;;;;;7.70;7.20;;;;;;;;;;5000308;28;20065;-72
2023/09/23 11:30:01;;;;;;;7.45;6.95;;;;;;;;;;4999834;28;20104;-72
2023/09/23 11:32:27;;;;;;;7.80;7.30;;;;;;;;;;4999708;28;20048;-72
2023/09/23 11:34:53;;;;;;;7.93;7.30;;;;;;;;;;4983307;28;20301;-72
2023/09/23 11:37:22;;;;;;;7.30;6.80;;;;;;;;;;4999327;28;20713;-72
2023/09/23 11:39:49;;;;;;;8.07;7.10;;;;;;;;;;5001336;28;20070;-72
2023/09/23 11:42:15;;;;;;;7.63;7.00;;;;;;;;;;4998885;28;20068;-72
2023/09/23 11:44:40;;;;;;;7.22;6.80;;;;;;;;;;4999969;28;20078;-72
2023/09/23 11:47:06;;;;;;;7.90;7.20;;;;;;;;;;4999532;28;20046;-72
2023/09/23 11:49:32;;;;;;;7.65;7.15;;;;;;;;;;4984933;28;20068;-72
2023/09/23 11:51:57;;;;;;;7.78;7.28;;;;;;;;;;4999597;28;20559;-72
2023/09/23 11:54:24;;;;;;;7.78;7.28;;;;;;;;;;4998259;28;20044;-72
2023/09/23 11:56:49;;;;;;;8.13;7.53;;;;;;;;;;4978340;28;20047;-72
2023/09/23 11:59:19;;;;;;;8.27;7.78;;;;;;;;;;4965822;28;20409;-72
2023/09/23 12:01:47;;;;;;;8.52;7.93;;;;;;;;;;4963989;28;20034;-72
2023/09/23 12:04:14;;;;;;;8.30;7.80;;;;;;;;;;4965821;28;20110;-72
2023/09/23 12:06:39;;;;;;;8.63;8.00;;;;;;;;;;4965323;28;20043;-72
2023/09/23 12:09:09;;;;;;;8.90;7.97;;;;;;;;;;4961145;28;20492;-73
2023/09/23 12:11:35;;;;;;;8.35;7.80;;;;;;;;;;4965419;28;20523;-72
2023/09/23 12:14:02;;;;;;;8.25;7.63;;;;;;;;;;4966390;28;20038;-72
2023/09/23 12:16:28;;;;;;;8.65;7.85;;;;;;;;;;4962231;28;20022;-71
2023/09/23 12:18:54;;;;;;;8.60;8.00;;;;;;;;;;4964621;28;20038;-75
2023/09/23 12:21:20;;;;;;;8.65;8.07;;;;;;;;;;4966627;28;20726;-74
2023/09/23 12:23:45;;;;;;;9.10;8.30;;;;;;;;;;4966584;28;20034;-75
2023/09/23 12:26:11;;;;;;;9.00;7.93;;;;;;;;;;4978969;28;20428;-75
2023/09/23 12:28:37;;;;;;;8.35;7.60;;;;;;;;;;4963696;28;20749;-75
2023/09/23 12:31:03;;;;;;;8.20;7.70;;;;;;;;;;4964439;28;20047;-74
2023/09/23 12:33:29;;;;;;;8.70;8.00;;;;;;;;;;4963501;28;20506;-74
2023/09/23 12:35:54;;;;;;;8.40;7.70;;;;;;;;;;4980120;28;20046;-75
2023/09/23 12:38:20;;;;;;;8.63;8.02;;;;;;;;;;4957147;28;20027;-74
2023/09/23 12:40:46;;;;;;;8.48;7.88;;;;;;;;;;4964036;28;20107;-75
2023/09/23 12:43:12;;;;;;;8.25;7.75;;;;;;;;;;4966676;28;20129;-75
2023/09/23 12:45:40;;;;;;;8.73;8.13;;;;;;;;;;4962947;28;20085;-75
2023/09/23 12:48:09;;;;;;;8.88;8.18;;;;;;;;;;4961122;28;20039;-75
2023/09/23 12:50:35;;;;;;;8.82;8.18;;;;;;;;;;4963073;28;20053;-74
2023/09/23 12:53:01;;;;;;;8.63;7.90;;;;;;;;;;4963422;28;20117;-74
2023/09/23 12:55:27;;;;;;;9.02;8.43;;;;;;;;;;4962357;28;20039;-74
2023/09/23 12:57:56;;;;;;;8.75;8.25;;;;;;;;;;4958777;28;20047;-74
2023/09/23 13:00:25;;;;;;;9.07;8.38;;;;;;;;;;4974688;28;20035;-74
2023/09/23 13:02:51;;;;;;;9.88;9.07;;;;;;;;;;4961256;28;20042;-75
2023/09/23 13:05:16;;;;;;;9.07;8.48;;;;;;;;;;4957934;28;20050;-74
2023/09/23 13:07:43;;;;;;;8.68;8.07;;;;;;;;;;4964180;28;20128;-75
2023/09/23 13:10:10;;;;;;;8.63;7.97;;;;;;;;;;4966021;28;20497;-74
2023/09/23 13:12:36;;;;;;;9.07;8.48;;;;;;;;;;4966431;28;20057;-74
2023/09/23 13:15:01;;;;;;;9.00;8.30;;;;;;;;;;4974352;28;20041;-74
2023/09/23 13:17:27;;;;;;;9.10;8.50;;;;;;;;;;4959356;28;20073;-75
2023/09/23 13:19:54;;;;;;;9.05;8.43;;;;;;;;;;4965349;28;20038;-73
2023/09/23 13:22:20;;;;;;;8.52;8.02;;;;;;;;;;4959974;28;20034;-74
2023/09/23 13:24:46;;;;;;;9.38;8.70;;;;;;;;;;4961428;28;20526;-75
2023/09/23 13:27:11;;;;;;;9.10;8.40;;;;;;;;;;4961380;28;20095;-75
2023/09/23 13:29:37;;;;;;;9.07;8.40;;;;;;;;;;4963956;28;20488;-75
2023/09/23 13:32:02;;;;;;;9.00;8.23;;;;;;;;;;4964543;28;20377;-74
2023/09/23 13:34:28;;;;;;;9.30;8.70;;;;;;;;;;4966084;28;20786;-73
2023/09/23 13:36:54;;;;;;;9.25;8.65;;;;;;;;;;4983654;28;20504;-74
2023/09/23 13:39:20;;;;;;;9.25;8.45;;;;;;;;;;4961006;28;20042;-75
2023/09/23 13:41:45;;;;;;;9.50;8.90;;;;;;;;;;4965773;28;20042;-75
2023/09/23 13:44:11;;;;;;;9.73;9.05;;;;;;;;;;4967870;28;20045;-74
2023/09/23 13:46:36;;;;;;;11.10;8.63;;;;;;;;;;4964830;28;20480;-74
2023/09/23 13:49:04;;;;;;;8.85;8.35;;;;;;;;;;4963789;28;20420;-74
2023/09/23 13:51:31;;;;;;;9.73;8.95;;;;;;;;;;4963880;28;20404;-75
2023/09/23 13:53:56;;;;;;;9.23;8.52;;;;;;;;;;4970566;28;20072;-75
2023/09/23 13:56:22;;;;;;;9.10;8.50;;;;;;;;;;4959854;28;20046;-74
2023/09/23 13:58:48;;;;;;;9.00;8.30;;;;;;;;;;4963699;28;20539;-76
2023/09/23 14:01:13;;;;;;;8.93;8.32;;;;;;;;;;4964409;28;20050;-74
2023/09/23 14:03:39;;;;;;;8.95;8.35;;;;;;;;;;4963406;28;20042;-74
2023/09/23 14:06:05;;;;;;;9.45;8.85;;;;;;;;;;4967548;28;20048;-75
2023/09/23 14:08:33;;;;;;;9.30;8.60;;;;;;;;;;4962624;28;20503;-76
2023/09/23 14:10:59;;;;;;;9.40;8.70;;;;;;;;;;4967207;28;20042;-76
2023/09/23 14:13:24;;;;;;;9.07;8.57;;;;;;;;;;4964284;28;20046;-74
2023/09/23 14:15:50;;;;;;;9.10;8.43;;;;;;;;;;4967652;28;20019;-75
2023/09/23 14:18:16;;;;;;;8.95;8.25;;;;;;;;;;4963967;28;20050;-73
2023/09/23 14:20:43;;;;;;;9.13;8.50;;;;;;;;;;4962632;28;20532;-75
2023/09/23 14:23:10;;;;;;;9.80;9.00;;;;;;;;;;4960776;28;20502;-75
2023/09/23 14:25:36;;;;;;;9.10;8.50;;;;;;;;;;4966581;28;20161;-75
2023/09/23 14:28:02;;;;;;;9.40;8.70;;;;;;;;;;4962647;28;20177;-75
2023/09/23 14:30:28;;;;;;;9.10;8.50;;;;;;;;;;4977307;28;20408;-75
2023/09/23 14:32:54;;;;;;;9.15;8.55;;;;;;;;;;4966160;28;20049;-75